KBZN/BZN METAR and TAF weather

Enter ICAO airport designator
Station Type Date Time Source
KBZN METAR 2018/10/19 15:56 UTC NOAA

KBZN 191556Z 16003KT 10SM CLR 07/M01 A3041 RMK AO2 SLP311 T00721006


Station Type Date Time Source
KBZN Decoded METAR 2018/10/19 15:56 UTC NOAA

BOZEMAN GALLATIN FIELD, MT, United States (KBZN) 45-47N 111-09W 1361M
Oct 19, 2018 - 11:56 AM EDT / 2018.10.19 1556 UTC
Wind: from the SSE (160 degrees) at 3 MPH (3 KT):0
Visibility: 10 mile(s):0
Sky conditions: clear
Temperature: 45.0 F (7.2 C)
Dew Point: 30.9 F (-0.6 C)
Relative Humidity: 57%
Pressure (altimeter): 30.41 in. Hg (1029 hPa)
ob: KBZN 191556Z 16003KT 10SM CLR 07/M01 A3041 RMK AO2 SLP311 T00721006
cycle: 16

Station Type Date Time Source
KBZN TAF 2018/10/19 12:22 UTC NOAA

TAF KBZN 191120Z 1912/2018 VRB06KT P6SM SCT200


Example: see airport list